sensor_id;sensor_type;location;lat;lon;timestamp;P1;P2;P0
27143;PMS1003;14672;50.250;8.312;2023-02-03T00:01:08;10.67;9.33;1.00
27143;PMS1003;14672;50.250;8.312;2023-02-03T00:03:34;11.00;8.67;2.33
27143;PMS1003;14672;50.250;8.312;2023-02-03T00:06:00;10.75;10.50;1.50
27143;PMS1003;14672;50.250;8.312;2023-02-03T00:08:28;9.00;9.00;3.00
27143;PMS1003;14672;50.250;8.312;2023-02-03T00:10:55;11.50;10.75;2.50
27143;PMS1003;14672;50.250;8.312;2023-02-03T00:13:23;8.75;8.75;3.00
27143;PMS1003;14672;50.250;8.312;2023-02-03T00:15:51;10.75;10.75;2.00
27143;PMS1003;14672;50.250;8.312;2023-02-03T00:18:17;10.75;9.75;1.00
27143;PMS1003;14672;50.250;8.312;2023-02-03T00:20:43;11.00;9.00;1.00
27143;PMS1003;14672;50.250;8.312;2023-02-03T00:23:09;9.67;9.00;3.00
27143;PMS1003;14672;50.250;8.312;2023-02-03T00:25:36;7.00;7.00;1.00
27143;PMS1003;14672;50.250;8.312;2023-02-03T00:28:03;12.25;10.00;1.00
27143;PMS1003;14672;50.250;8.312;2023-02-03T00:30:30;10.00;10.00;1.00
27143;PMS1003;14672;50.250;8.312;2023-02-03T00:32:59;8.25;7.50;1.00
27143;PMS1003;14672;50.250;8.312;2023-02-03T00:35:26;11.75;10.75;2.50
27143;PMS1003;14672;50.250;8.312;2023-02-03T00:37:55;7.00;7.00;1.00
27143;PMS1003;14672;50.250;8.312;2023-02-03T00:40:22;11.75;11.00;1.00
27143;PMS1003;14672;50.250;8.312;2023-02-03T00:42:50;9.25;9.25;3.00
27143;PMS1003;14672;50.250;8.312;2023-02-03T00:45:17;8.75;8.75;2.00
27143;PMS1003;14672;50.250;8.312;2023-02-03T00:47:43;9.00;9.00;1.50
27143;PMS1003;14672;50.250;8.312;2023-02-03T00:50:09;9.33;8.33;1.00
27143;PMS1003;14672;50.250;8.312;2023-02-03T00:52:35;8.75;8.75;1.50
27143;PMS1003;14672;50.250;8.312;2023-02-03T00:55:01;9.00;9.00;1.00
27143;PMS1003;14672;50.250;8.312;2023-02-03T00:57:29;10.75;9.00;2.00
27143;PMS1003;14672;50.250;8.312;2023-02-03T00:59:55;7.00;7.00;1.00
27143;PMS1003;14672;50.250;8.312;2023-02-03T01:02:22;10.00;8.50;1.50
27143;PMS1003;14672;50.250;8.312;2023-02-03T01:04:48;13.25;12.25;3.00
27143;PMS1003;14672;50.250;8.312;2023-02-03T01:07:14;9.00;9.00;1.00
27143;PMS1003;14672;50.250;8.312;2023-02-03T01:09:40;7.00;7.00;1.00
27143;PMS1003;14672;50.250;8.312;2023-02-03T01:12:06;10.33;9.00;2.33
27143;PMS1003;14672;50.250;8.312;2023-02-03T01:14:32;9.00;9.00;1.00
27143;PMS1003;14672;50.250;8.312;2023-02-03T01:16:59;12.00;10.75;2.00
27143;PMS1003;14672;50.250;8.312;2023-02-03T01:19:25;7.50;7.50;2.50
27143;PMS1003;14672;50.250;8.312;2023-02-03T01:21:51;9.75;9.75;2.50
27143;PMS1003;14672;50.250;8.312;2023-02-03T01:24:17;9.00;9.00;3.00
27143;PMS1003;14672;50.250;8.312;2023-02-03T01:26:43;9.00;7.00;1.00
27143;PMS1003;14672;50.250;8.312;2023-02-03T01:29:08;7.00;7.00;1.00
27143;PMS1003;14672;50.250;8.312;2023-02-03T01:31:36;8.25;8.25;1.50
27143;PMS1003;14672;50.250;8.312;2023-02-03T01:34:04;10.00;9.00;3.00
27143;PMS1003;14672;50.250;8.312;2023-02-03T01:36:33;8.50;7.50;1.00
27143;PMS1003;14672;50.250;8.312;2023-02-03T01:38:59;11.25;9.25;3.00
27143;PMS1003;14672;50.250;8.312;2023-02-03T01:41:27;7.00;7.00;2.00
27143;PMS1003;14672;50.250;8.312;2023-02-03T01:43:57;11.00;9.25;2.00
27143;PMS1003;14672;50.250;8.312;2023-02-03T01:46:27;11.00;10.50;1.50
27143;PMS1003;14672;50.250;8.312;2023-02-03T01:49:21;11.00;10.25;1.00
27143;PMS1003;14672;50.250;8.312;2023-02-03T01:51:53;9.00;9.00;0.75
27143;PMS1003;14672;50.250;8.312;2023-02-03T01:54:30;9.75;9.75;4.50
27143;PMS1003;14672;50.250;8.312;2023-02-03T01:57:03;8.00;8.00;1.00
27143;PMS1003;14672;50.250;8.312;2023-02-03T02:00:00;11.75;9.75;3.00
27143;PMS1003;14672;50.250;8.312;2023-02-03T02:02:30;10.75;10.00;1.00
27143;PMS1003;14672;50.250;8.312;2023-02-03T02:07:59;9.50;9.50;2.00
27143;PMS1003;14672;50.250;8.312;2023-02-03T02:10:28;9.00;9.00;2.50
27143;PMS1003;14672;50.250;8.312;2023-02-03T02:12:58;9.00;7.00;3.00
27143;PMS1003;14672;50.250;8.312;2023-02-03T02:22:08;9.50;7.00;0.75
27143;PMS1003;14672;50.250;8.312;2023-02-03T02:37:16;10.25;9.00;1.00
27143;PMS1003;14672;50.250;8.312;2023-02-03T02:40:26;12.25;8.00;3.00
27143;PMS1003;14672;50.250;8.312;2023-02-03T02:43:10;9.00;9.00;2.50
27143;PMS1003;14672;50.250;8.312;2023-02-03T02:46:18;9.50;9.00;3.00
27143;PMS1003;14672;50.250;8.312;2023-02-03T02:51:42;9.00;9.00;2.50
27143;PMS1003;14672;50.250;8.312;2023-02-03T02:54:13;8.00;8.00;2.50
27143;PMS1003;14672;50.250;8.312;2023-02-03T02:56:47;7.00;7.00;1.00
27143;PMS1003;14672;50.250;8.312;2023-02-03T02:59:17;9.00;7.00;2.00
27143;PMS1003;14672;50.250;8.312;2023-02-03T03:01:43;7.00;7.00;1.00
27143;PMS1003;14672;50.250;8.312;2023-02-03T03:04:09;10.33;9.00;3.00
27143;PMS1003;14672;50.250;8.312;2023-02-03T03:06:46;6.50;6.50;1.00
27143;PMS1003;14672;50.250;8.312;2023-02-03T03:09:19;13.00;11.00;3.00
27143;PMS1003;14672;50.250;8.312;2023-02-03T03:11:50;7.50;7.50;3.00
27143;PMS1003;14672;50.250;8.312;2023-02-03T03:14:24;11.00;10.25;2.00
27143;PMS1003;14672;50.250;8.312;2023-02-03T03:16:56;8.00;8.00;3.00
27143;PMS1003;14672;50.250;8.312;2023-02-03T03:19:33;9.00;9.00;3.00
27143;PMS1003;14672;50.250;8.312;2023-02-03T03:22:05;7.00;7.00;1.00
27143;PMS1003;14672;50.250;8.312;2023-02-03T03:24:39;6.00;6.00;0.75
27143;PMS1003;14672;50.250;8.312;2023-02-03T03:30:05;8.00;7.00;1.00
27143;PMS1003;14672;50.250;8.312;2023-02-03T03:32:44;6.50;6.50;0.25
27143;PMS1003;14672;50.250;8.312;2023-02-03T03:35:10;10.50;9.00;1.00
27143;PMS1003;14672;50.250;8.312;2023-02-03T03:37:37;7.50;7.50;1.00
27143;PMS1003;14672;50.250;8.312;2023-02-03T03:40:17;8.50;8.50;1.00
27143;PMS1003;14672;50.250;8.312;2023-02-03T03:43:15;8.50;8.50;2.00
27143;PMS1003;14672;50.250;8.312;2023-02-03T03:45:51;5.00;5.00;0.25
27143;PMS1003;14672;50.250;8.312;2023-02-03T03:51:02;5.00;5.00;0.00
27143;PMS1003;14672;50.250;8.312;2023-02-03T03:53:37;8.50;8.50;1.00
27143;PMS1003;14672;50.250;8.312;2023-02-03T03:56:08;7.00;6.00;1.00
27143;PMS1003;14672;50.250;8.312;2023-02-03T03:58:40;9.50;9.00;3.00
27143;PMS1003;14672;50.250;8.312;2023-02-03T04:01:11;10.00;8.50;1.00
27143;PMS1003;14672;50.250;8.312;2023-02-03T04:03:49;5.00;5.00;1.00
27143;PMS1003;14672;50.250;8.312;2023-02-03T04:06:24;8.50;7.00;1.00
27143;PMS1003;14672;50.250;8.312;2023-02-03T04:08:50;7.00;7.00;1.00
27143;PMS1003;14672;50.250;8.312;2023-02-03T04:11:16;11.00;9.00;1.00
27143;PMS1003;14672;50.250;8.312;2023-02-03T04:14:02;9.50;8.00;1.50
27143;PMS1003;14672;50.250;8.312;2023-02-03T04:16:28;7.00;7.00;1.00
27143;PMS1003;14672;50.250;8.312;2023-02-03T04:18:54;9.67;7.67;1.00
27143;PMS1003;14672;50.250;8.312;2023-02-03T04:21:20;7.33;7.00;1.00
27143;PMS1003;14672;50.250;8.312;2023-02-03T04:23:46;8.75;8.75;2.50
27143;PMS1003;14672;50.250;8.312;2023-02-03T04:26:11;8.67;8.67;1.67
27143;PMS1003;14672;50.250;8.312;2023-02-03T04:28:37;10.00;9.00;3.00
27143;PMS1003;14672;50.250;8.312;2023-02-03T04:31:03;7.00;7.00;0.33
27143;PMS1003;14672;50.250;8.312;2023-02-03T04:33:29;11.00;9.00;1.00
27143;PMS1003;14672;50.250;8.312;2023-02-03T04:35:55;7.67;7.67;2.33
27143;PMS1003;14672;50.250;8.312;2023-02-03T04:38:21;11.00;11.00;1.67
27143;PMS1003;14672;50.250;8.312;2023-02-03T04:40:46;9.00;9.00;3.00
27143;PMS1003;14672;50.250;8.312;2023-02-03T04:43:12;7.00;7.00;3.00
27143;PMS1003;14672;50.250;8.312;2023-02-03T04:45:39;7.50;7.50;2.00
27143;PMS1003;14672;50.250;8.312;2023-02-03T04:48:04;7.33;6.33;1.00
27143;PMS1003;14672;50.250;8.312;2023-02-03T04:50:30;9.00;7.67;1.00
27143;PMS1003;14672;50.250;8.312;2023-02-03T04:52:56;7.00;7.00;1.00
27143;PMS1003;14672;50.250;8.312;2023-02-03T04:55:25;7.50;7.50;1.00
27143;PMS1003;14672;50.250;8.312;2023-02-03T04:57:55;9.50;9.50;4.00
27143;PMS1003;14672;50.250;8.312;2023-02-03T05:00:23;8.00;7.00;2.00
27143;PMS1003;14672;50.250;8.312;2023-02-03T05:02:50;10.50;9.00;1.00
27143;PMS1003;14672;50.250;8.312;2023-02-03T05:05:16;11.33;11.00;1.00
27143;PMS1003;14672;50.250;8.312;2023-02-03T05:07:42;7.50;7.50;1.00
27143;PMS1003;14672;50.250;8.312;2023-02-03T05:10:08;9.00;7.67;1.00
27143;PMS1003;14672;50.250;8.312;2023-02-03T05:12:34;9.00;9.00;1.50
27143;PMS1003;14672;50.250;8.312;2023-02-03T05:15:00;5.67;5.67;1.00
27143;PMS1003;14672;50.250;8.312;2023-02-03T05:17:26;8.00;7.25;1.00
27143;PMS1003;14672;50.250;8.312;2023-02-03T05:19:52;11.00;9.00;1.00
27143;PMS1003;14672;50.250;8.312;2023-02-03T05:22:18;7.00;7.00;1.00
27143;PMS1003;14672;50.250;8.312;2023-02-03T05:24:44;9.00;9.00;3.00
27143;PMS1003;14672;50.250;8.312;2023-02-03T05:27:10;12.25;9.00;3.00
27143;PMS1003;14672;50.250;8.312;2023-02-03T05:29:36;7.00;7.00;1.00
27143;PMS1003;14672;50.250;8.312;2023-02-03T05:32:01;9.00;9.00;1.67
27143;PMS1003;14672;50.250;8.312;2023-02-03T05:34:27;7.00;7.00;1.00
27143;PMS1003;14672;50.250;8.312;2023-02-03T05:36:53;9.67;9.67;3.00
27143;PMS1003;14672;50.250;8.312;2023-02-03T05:39:19;6.33;6.33;0.33
27143;PMS1003;14672;50.250;8.312;2023-02-03T05:41:44;7.00;7.00;1.00
27143;PMS1003;14672;50.250;8.312;2023-02-03T05:44:16;7.00;7.00;1.00
27143;PMS1003;14672;50.250;8.312;2023-02-03T05:46:50;7.00;7.00;0.75
27143;PMS1003;14672;50.250;8.312;2023-02-03T05:49:19;5.00;5.00;1.00
27143;PMS1003;14672;50.250;8.312;2023-02-03T05:51:47;6.50;6.50;1.00
27143;PMS1003;14672;50.250;8.312;2023-02-03T05:54:14;8.50;7.00;2.50
27143;PMS1003;14672;50.250;8.312;2023-02-03T05:56:40;7.75;7.00;1.00
27143;PMS1003;14672;50.250;8.312;2023-02-03T05:59:06;7.00;7.00;1.00
27143;PMS1003;14672;50.250;8.312;2023-02-03T06:01:32;9.00;9.00;3.00
27143;PMS1003;14672;50.250;8.312;2023-02-03T06:04:00;8.00;7.50;1.00
27143;PMS1003;14672;50.250;8.312;2023-02-03T06:06:26;7.00;7.00;1.00
27143;PMS1003;14672;50.250;8.312;2023-02-03T06:09:03;8.00;7.00;1.00
27143;PMS1003;14672;50.250;8.312;2023-02-03T06:11:32;8.50;8.50;3.00
27143;PMS1003;14672;50.250;8.312;2023-02-03T06:13:59;5.50;5.00;0.25
27143;PMS1003;14672;50.250;8.312;2023-02-03T06:16:26;7.00;7.00;1.00
27143;PMS1003;14672;50.250;8.312;2023-02-03T06:18:53;10.25;8.75;1.50
27143;PMS1003;14672;50.250;8.312;2023-02-03T06:21:23;8.75;8.50;1.50
27143;PMS1003;14672;50.250;8.312;2023-02-03T06:23:49;7.00;7.00;1.00
27143;PMS1003;14672;50.250;8.312;2023-02-03T06:26:15;7.00;7.00;3.00
27143;PMS1003;14672;50.250;8.312;2023-02-03T06:28:41;9.67;7.00;1.00
27143;PMS1003;14672;50.250;8.312;2023-02-03T06:31:06;6.33;6.33;1.00
27143;PMS1003;14672;50.250;8.312;2023-02-03T06:33:32;8.33;8.33;1.00
27143;PMS1003;14672;50.250;8.312;2023-02-03T06:35:58;7.00;7.00;1.00
27143;PMS1003;14672;50.250;8.312;2023-02-03T06:38:24;8.50;7.00;1.00
27143;PMS1003;14672;50.250;8.312;2023-02-03T06:40:50;7.00;7.00;1.00
27143;PMS1003;14672;50.250;8.312;2023-02-03T06:43:16;10.33;7.67;0.67
27143;PMS1003;14672;50.250;8.312;2023-02-03T06:45:45;5.67;5.67;0.00
27143;PMS1003;14672;50.250;8.312;2023-02-03T06:48:13;7.00;7.00;1.00
27143;PMS1003;14672;50.250;8.312;2023-02-03T06:50:39;9.00;7.00;1.00
27143;PMS1003;14672;50.250;8.312;2023-02-03T06:53:05;10.00;7.00;1.00
27143;PMS1003;14672;50.250;8.312;2023-02-03T06:55:31;7.67;7.67;1.00
27143;PMS1003;14672;50.250;8.312;2023-02-03T06:57:58;6.00;6.00;0.00
27143;PMS1003;14672;50.250;8.312;2023-02-03T07:00:24;7.00;7.00;1.67
27143;PMS1003;14672;50.250;8.312;2023-02-03T07:02:53;9.33;9.33;5.00
27143;PMS1003;14672;50.250;8.312;2023-02-03T07:05:22;11.75;10.50;1.00
27143;PMS1003;14672;50.250;8.312;2023-02-03T07:07:48;7.50;7.50;1.00
27143;PMS1003;14672;50.250;8.312;2023-02-03T07:10:15;8.75;7.00;1.00
27143;PMS1003;14672;50.250;8.312;2023-02-03T07:12:42;8.50;7.00;0.50
27143;PMS1003;14672;50.250;8.312;2023-02-03T07:15:08;9.25;9.25;2.50
27143;PMS1003;14672;50.250;8.312;2023-02-03T07:17:35;9.75;8.00;1.00
27143;PMS1003;14672;50.250;8.312;2023-02-03T07:20:02;5.00;5.00;0.00
27143;PMS1003;14672;50.250;8.312;2023-02-03T07:22:29;5.50;5.50;0.00
27143;PMS1003;14672;50.250;8.312;2023-02-03T07:24:55;7.00;7.00;1.00
27143;PMS1003;14672;50.250;8.312;2023-02-03T07:27:20;5.00;5.00;1.00
27143;PMS1003;14672;50.250;8.312;2023-02-03T07:29:46;7.00;7.00;1.00
27143;PMS1003;14672;50.250;8.312;2023-02-03T07:32:12;7.00;7.00;1.00
27143;PMS1003;14672;50.250;8.312;2023-02-03T07:34:38;6.33;6.33;0.67
27143;PMS1003;14672;50.250;8.312;2023-02-03T07:37:04;5.00;5.00;1.00
27143;PMS1003;14672;50.250;8.312;2023-02-03T07:39:29;9.00;7.67;1.00
27143;PMS1003;14672;50.250;8.312;2023-02-03T07:41:55;7.00;7.00;1.00
27143;PMS1003;14672;50.250;8.312;2023-02-03T07:44:21;7.00;7.00;0.00
27143;PMS1003;14672;50.250;8.312;2023-02-03T07:46:47;9.00;8.00;1.50
27143;PMS1003;14672;50.250;8.312;2023-02-03T07:49:13;8.00;8.00;3.00
27143;PMS1003;14672;50.250;8.312;2023-02-03T07:51:39;9.25;7.25;1.00
27143;PMS1003;14672;50.250;8.312;2023-02-03T07:54:05;6.33;5.67;1.00
27143;PMS1003;14672;50.250;8.312;2023-02-03T07:56:31;7.00;7.00;1.00
27143;PMS1003;14672;50.250;8.312;2023-02-03T07:58:58;7.00;7.00;0.00
27143;PMS1003;14672;50.250;8.312;2023-02-03T08:01:24;7.00;7.00;1.50
27143;PMS1003;14672;50.250;8.312;2023-02-03T08:03:50;7.00;7.00;0.75
27143;PMS1003;14672;50.250;8.312;2023-02-03T08:06:16;9.00;7.00;0.00
27143;PMS1003;14672;50.250;8.312;2023-02-03T08:08:42;7.00;7.00;1.00
27143;PMS1003;14672;50.250;8.312;2023-02-03T08:11:08;8.75;7.00;1.00
27143;PMS1003;14672;50.250;8.312;2023-02-03T08:13:35;7.00;5.00;0.00
27143;PMS1003;14672;50.250;8.312;2023-02-03T08:16:01;7.00;7.00;1.00
27143;PMS1003;14672;50.250;8.312;2023-02-03T08:18:27;6.50;6.00;0.25
27143;PMS1003;14672;50.250;8.312;2023-02-03T08:20:53;7.00;7.00;0.00
27143;PMS1003;14672;50.250;8.312;2023-02-03T08:23:18;10.00;7.00;1.00
27143;PMS1003;14672;50.250;8.312;2023-02-03T08:25:48;6.50;6.50;0.75
27143;PMS1003;14672;50.250;8.312;2023-02-03T08:28:18;7.00;7.00;1.00
27143;PMS1003;14672;50.250;8.312;2023-02-03T08:30:44;7.50;7.50;1.00
27143;PMS1003;14672;50.250;8.312;2023-02-03T08:33:11;8.00;8.00;1.00
27143;PMS1003;14672;50.250;8.312;2023-02-03T08:35:36;7.00;7.00;1.00
27143;PMS1003;14672;50.250;8.312;2023-02-03T08:38:04;6.00;5.50;0.50
27143;PMS1003;14672;50.250;8.312;2023-02-03T08:40:30;8.75;7.00;1.00
27143;PMS1003;14672;50.250;8.312;2023-02-03T08:42:56;8.33;8.33;1.00
27143;PMS1003;14672;50.250;8.312;2023-02-03T08:45:22;7.67;7.67;1.00
27143;PMS1003;14672;50.250;8.312;2023-02-03T08:47:48;7.00;7.00;0.00
27143;PMS1003;14672;50.250;8.312;2023-02-03T08:50:13;7.00;7.00;1.00
27143;PMS1003;14672;50.250;8.312;2023-02-03T08:52:39;9.00;5.00;0.33
27143;PMS1003;14672;50.250;8.312;2023-02-03T08:55:08;11.75;9.50;1.00
27143;PMS1003;14672;50.250;8.312;2023-02-03T08:57:34;5.00;5.00;0.00
27143;PMS1003;14672;50.250;8.312;2023-02-03T09:00:00;6.50;6.00;1.00
27143;PMS1003;14672;50.250;8.312;2023-02-03T09:02:29;5.00;5.00;0.75
27143;PMS1003;14672;50.250;8.312;2023-02-03T09:04:54;7.00;6.33;1.00
27143;PMS1003;14672;50.250;8.312;2023-02-03T09:07:20;5.67;5.67;1.00
27143;PMS1003;14672;50.250;8.312;2023-02-03T09:09:46;7.25;6.50;0.00
27143;PMS1003;14672;50.250;8.312;2023-02-03T09:12:12;7.67;7.67;1.67
27143;PMS1003;14672;50.250;8.312;2023-02-03T09:14:38;6.33;6.33;0.00
27143;PMS1003;14672;50.250;8.312;2023-02-03T09:17:04;5.00;5.00;1.00
27143;PMS1003;14672;50.250;8.312;2023-02-03T09:19:32;7.50;7.00;1.00
27143;PMS1003;14672;50.250;8.312;2023-02-03T09:21:58;7.00;5.00;0.33
27143;PMS1003;14672;50.250;8.312;2023-02-03T09:24:23;9.00;7.00;1.00
27143;PMS1003;14672;50.250;8.312;2023-02-03T09:26:49;4.33;4.33;0.33
27143;PMS1003;14672;50.250;8.312;2023-02-03T09:29:15;4.33;4.33;0.00
27143;PMS1003;14672;50.250;8.312;2023-02-03T09:31:41;7.00;7.00;0.75
27143;PMS1003;14672;50.250;8.312;2023-02-03T09:34:07;6.00;5.00;0.00
27143;PMS1003;14672;50.250;8.312;2023-02-03T09:36:34;7.00;7.00;1.00
27143;PMS1003;14672;50.250;8.312;2023-02-03T09:39:01;6.50;6.50;1.00
27143;PMS1003;14672;50.250;8.312;2023-02-03T09:44:32;7.00;7.00;0.50
27143;PMS1003;14672;50.250;8.312;2023-02-03T09:47:24;7.25;7.25;1.00
27143;PMS1003;14672;50.250;8.312;2023-02-03T09:50:00;7.00;7.00;1.00
27143;PMS1003;14672;50.250;8.312;2023-02-03T09:52:36;8.00;7.50;1.00
27143;PMS1003;14672;50.250;8.312;2023-02-03T09:55:26;8.50;8.00;0.75
27143;PMS1003;14672;50.250;8.312;2023-02-03T09:58:19;7.00;7.00;1.00
27143;PMS1003;14672;50.250;8.312;2023-02-03T10:00:53;5.00;5.00;0.00
27143;PMS1003;14672;50.250;8.312;2023-02-03T10:06:32;7.25;7.25;1.00
27143;PMS1003;14672;50.250;8.312;2023-02-03T10:09:08;27.00;25.25;9.25
27143;PMS1003;14672;50.250;8.312;2023-02-03T10:12:24;18.00;15.75;7.00
27143;PMS1003;14672;50.250;8.312;2023-02-03T10:18:25;6.75;6.75;1.00
27143;PMS1003;14672;50.250;8.312;2023-02-03T10:21:15;8.50;8.50;1.00
27143;PMS1003;14672;50.250;8.312;2023-02-03T10:23:52;4.00;4.00;0.00
27143;PMS1003;14672;50.250;8.312;2023-02-03T10:26:22;18.75;15.75;8.75
27143;PMS1003;14672;50.250;8.312;2023-02-03T10:28:53;14.25;13.75;4.50
27143;PMS1003;14672;50.250;8.312;2023-02-03T10:31:42;16.75;14.00;5.00
27143;PMS1003;14672;50.250;8.312;2023-02-03T10:34:09;17.00;15.50;7.00
27143;PMS1003;14672;50.250;8.312;2023-02-03T10:36:47;8.50;8.50;3.00
27143;PMS1003;14672;50.250;8.312;2023-02-03T10:42:15;8.50;8.50;3.00
27143;PMS1003;14672;50.250;8.312;2023-02-03T10:44:48;8.00;8.00;1.00
27143;PMS1003;14672;50.250;8.312;2023-02-03T10:50:16;7.00;7.00;1.00
27143;PMS1003;14672;50.250;8.312;2023-02-03T10:52:46;7.00;7.00;1.00
27143;PMS1003;14672;50.250;8.312;2023-02-03T10:57:50;7.00;7.00;1.00
27143;PMS1003;14672;50.250;8.312;2023-02-03T11:03:07;9.75;9.25;3.00
27143;PMS1003;14672;50.250;8.312;2023-02-03T11:08:41;5.00;5.00;1.00
27143;PMS1003;14672;50.250;8.312;2023-02-03T11:11:31;7.50;7.00;0.75
27143;PMS1003;14672;50.250;8.312;2023-02-03T11:16:27;9.25;8.75;2.50
27143;PMS1003;14672;50.250;8.312;2023-02-03T11:21:44;5.00;5.00;0.25
27143;PMS1003;14672;50.250;8.312;2023-02-03T11:24:58;7.00;6.50;1.00
27143;PMS1003;14672;50.250;8.312;2023-02-03T11:27:10;7.00;7.00;1.00
27143;PMS1003;14672;50.250;8.312;2023-02-03T11:29:43;7.00;7.00;1.00
27143;PMS1003;14672;50.250;8.312;2023-02-03T11:34:59;11.50;10.25;3.50
27143;PMS1003;14672;50.250;8.312;2023-02-03T11:37:53;7.25;7.25;3.00
27143;PMS1003;14672;50.250;8.312;2023-02-03T11:40:28;7.00;7.00;1.00
27143;PMS1003;14672;50.250;8.312;2023-02-03T11:43:02;6.50;6.50;1.00
27143;PMS1003;14672;50.250;8.312;2023-02-03T11:45:41;5.00;5.00;1.00
27143;PMS1003;14672;50.250;8.312;2023-02-03T11:56:54;5.00;5.00;0.75
27143;PMS1003;14672;50.250;8.312;2023-02-03T12:02:45;7.00;7.00;1.00
27143;PMS1003;14672;50.250;8.312;2023-02-03T12:23:00;5.00;5.00;0.00
27143;PMS1003;14672;50.250;8.312;2023-02-03T12:25:40;6.50;6.50;0.75
27143;PMS1003;14672;50.250;8.312;2023-02-03T12:28:27;5.00;5.00;0.25
27143;PMS1003;14672;50.250;8.312;2023-02-03T12:34:58;5.00;5.00;1.00
27143;PMS1003;14672;50.250;8.312;2023-02-03T12:37:41;7.00;7.00;0.00
27143;PMS1003;14672;50.250;8.312;2023-02-03T12:43:19;10.75;9.00;1.00
27143;PMS1003;14672;50.250;8.312;2023-02-03T12:46:02;6.00;6.00;1.00
27143;PMS1003;14672;50.250;8.312;2023-02-03T12:51:40;7.00;7.00;1.00
27143;PMS1003;14672;50.250;8.312;2023-02-03T12:54:31;6.50;6.50;1.00
27143;PMS1003;14672;50.250;8.312;2023-02-03T13:02:25;11.50;11.50;3.50
27143;PMS1003;14672;50.250;8.312;2023-02-03T13:04:59;8.75;8.75;3.00
27143;PMS1003;14672;50.250;8.312;2023-02-03T13:07:58;7.00;7.00;1.00
27143;PMS1003;14672;50.250;8.312;2023-02-03T13:13:28;7.50;7.00;1.00
27143;PMS1003;14672;50.250;8.312;2023-02-03T13:16:05;4.50;4.50;0.00
27143;PMS1003;14672;50.250;8.312;2023-02-03T13:18:35;7.00;7.00;1.00
27143;PMS1003;14672;50.250;8.312;2023-02-03T13:21:09;10.25;9.50;1.50
27143;PMS1003;14672;50.250;8.312;2023-02-03T13:23:38;8.75;8.75;3.00
27143;PMS1003;14672;50.250;8.312;2023-02-03T13:26:57;6.00;6.00;1.00
27143;PMS1003;14672;50.250;8.312;2023-02-03T13:38:13;5.00;5.00;0.75
27143;PMS1003;14672;50.250;8.312;2023-02-03T13:43:34;7.00;7.00;1.00
27143;PMS1003;14672;50.250;8.312;2023-02-03T13:46:05;7.50;7.50;3.00
27143;PMS1003;14672;50.250;8.312;2023-02-03T13:48:43;6.00;6.00;0.00
27143;PMS1003;14672;50.250;8.312;2023-02-03T13:51:14;7.50;7.50;1.00
27143;PMS1003;14672;50.250;8.312;2023-02-03T13:54:05;6.50;6.50;1.00
27143;PMS1003;14672;50.250;8.312;2023-02-03T13:56:38;6.50;5.50;0.25
27143;PMS1003;14672;50.250;8.312;2023-02-03T13:59:05;7.00;7.00;1.00
27143;PMS1003;14672;50.250;8.312;2023-02-03T14:01:37;7.00;7.00;1.00
27143;PMS1003;14672;50.250;8.312;2023-02-03T14:04:08;5.00;5.00;0.75
27143;PMS1003;14672;50.250;8.312;2023-02-03T14:06:54;5.50;5.00;0.25
27143;PMS1003;14672;50.250;8.312;2023-02-03T14:14:40;5.50;5.50;0.00
27143;PMS1003;14672;50.250;8.312;2023-02-03T14:20:03;5.00;5.00;0.00
27143;PMS1003;14672;50.250;8.312;2023-02-03T14:26:04;7.25;7.00;0.25
27143;PMS1003;14672;50.250;8.312;2023-02-03T14:39:54;11.50;11.50;2.50
27143;PMS1003;14672;50.250;8.312;2023-02-03T14:42:16;10.00;8.75;3.00
27143;PMS1003;14672;50.250;8.312;2023-02-03T14:48:23;11.00;10.25;4.50
27143;PMS1003;14672;50.250;8.312;2023-02-03T15:05:34;11.50;11.50;3.00
27143;PMS1003;14672;50.250;8.312;2023-02-03T15:10:57;10.75;10.00;3.00
27143;PMS1003;14672;50.250;8.312;2023-02-03T15:13:28;12.50;11.00;4.50
27143;PMS1003;14672;50.250;8.312;2023-02-03T15:16:02;12.50;11.25;5.00
27143;PMS1003;14672;50.250;8.312;2023-02-03T15:18:34;10.00;10.00;3.00
27143;PMS1003;14672;50.250;8.312;2023-02-03T15:21:01;15.75;14.25;3.00
27143;PMS1003;14672;50.250;8.312;2023-02-03T15:23:29;11.75;11.75;3.50
27143;PMS1003;14672;50.250;8.312;2023-02-03T15:26:24;12.50;11.50;3.50
27143;PMS1003;14672;50.250;8.312;2023-02-03T15:28:58;10.75;10.75;4.00
27143;PMS1003;14672;50.250;8.312;2023-02-03T15:31:36;12.50;12.50;3.00
27143;PMS1003;14672;50.250;8.312;2023-02-03T15:34:20;12.75;12.00;5.00
27143;PMS1003;14672;50.250;8.312;2023-02-03T15:36:58;11.50;11.25;5.00
27143;PMS1003;14672;50.250;8.312;2023-02-03T15:39:50;12.25;11.50;4.00
27143;PMS1003;14672;50.250;8.312;2023-02-03T15:42:35;23.25;21.00;8.00
27143;PMS1003;14672;50.250;8.312;2023-02-03T15:45:43;11.75;10.75;4.50
27143;PMS1003;14672;50.250;8.312;2023-02-03T15:48:32;16.50;14.50;5.50
27143;PMS1003;14672;50.250;8.312;2023-02-03T15:51:24;12.00;12.00;6.50
27143;PMS1003;14672;50.250;8.312;2023-02-03T15:56:54;21.00;18.00;7.00
27143;PMS1003;14672;50.250;8.312;2023-02-03T15:59:37;15.00;13.75;5.00
27143;PMS1003;14672;50.250;8.312;2023-02-03T16:02:37;10.50;10.50;4.00
27143;PMS1003;14672;50.250;8.312;2023-02-03T16:05:20;16.75;15.50;7.50
27143;PMS1003;14672;50.250;8.312;2023-02-03T16:07:50;16.25;14.50;7.00
27143;PMS1003;14672;50.250;8.312;2023-02-03T16:10:25;16.25;15.00;5.00
27143;PMS1003;14672;50.250;8.312;2023-02-03T16:16:04;24.75;23.50;12.00
27143;PMS1003;14672;50.250;8.312;2023-02-03T16:19:14;24.50;23.00;10.75
27143;PMS1003;14672;50.250;8.312;2023-02-03T16:21:49;34.50;32.50;13.00
27143;PMS1003;14672;50.250;8.312;2023-02-03T16:30:14;62.50;51.00;25.00
27143;PMS1003;14672;50.250;8.312;2023-02-03T16:33:10;27.75;26.25;11.25
27143;PMS1003;14672;50.250;8.312;2023-02-03T16:36:11;16.50;14.50;5.50
27143;PMS1003;14672;50.250;8.312;2023-02-03T16:38:57;16.25;14.50;7.00
27143;PMS1003;14672;50.250;8.312;2023-02-03T16:41:45;14.25;12.75;5.00
27143;PMS1003;14672;50.250;8.312;2023-02-03T16:44:30;14.00;12.50;5.00
27143;PMS1003;14672;50.250;8.312;2023-02-03T16:47:36;21.25;19.25;7.00
27143;PMS1003;14672;50.250;8.312;2023-02-03T16:50:22;17.50;15.00;8.00
27143;PMS1003;14672;50.250;8.312;2023-02-03T16:53:11;13.50;12.00;5.00
27143;PMS1003;14672;50.250;8.312;2023-02-03T16:55:43;18.75;17.00;5.00
27143;PMS1003;14672;50.250;8.312;2023-02-03T16:58:10;15.00;11.00;5.00
27143;PMS1003;14672;50.250;8.312;2023-02-03T17:00:37;17.75;15.25;7.00
27143;PMS1003;14672;50.250;8.312;2023-02-03T17:03:09;18.00;16.25;6.75
27143;PMS1003;14672;50.250;8.312;2023-02-03T17:05:43;17.00;14.75;3.50
27143;PMS1003;14672;50.250;8.312;2023-02-03T17:08:11;17.50;15.25;7.00
27143;PMS1003;14672;50.250;8.312;2023-02-03T17:10:39;15.75;13.75;5.00
27143;PMS1003;14672;50.250;8.312;2023-02-03T17:13:08;16.25;15.75;5.00
27143;PMS1003;14672;50.250;8.312;2023-02-03T17:15:41;15.75;15.75;7.00
27143;PMS1003;14672;50.250;8.312;2023-02-03T17:18:11;15.00;13.00;6.50
27143;PMS1003;14672;50.250;8.312;2023-02-03T17:20:39;15.00;14.25;5.00
27143;PMS1003;14672;50.250;8.312;2023-02-03T17:23:07;19.00;15.50;5.00
27143;PMS1003;14672;50.250;8.312;2023-02-03T17:25:33;20.50;17.25;5.25
27143;PMS1003;14672;50.250;8.312;2023-02-03T17:28:04;17.50;15.75;5.00
27143;PMS1003;14672;50.250;8.312;2023-02-03T17:30:32;12.00;12.00;5.25
27143;PMS1003;14672;50.250;8.312;2023-02-03T17:32:59;18.00;14.00;6.00
27143;PMS1003;14672;50.250;8.312;2023-02-03T17:35:28;12.50;12.50;6.50
27143;PMS1003;14672;50.250;8.312;2023-02-03T17:37:54;14.75;14.75;6.50
27143;PMS1003;14672;50.250;8.312;2023-02-03T17:40:20;18.67;16.67;8.00